createdAt,value
2019-03-22T00:01:56.997Z,11.70
2019-03-22T00:04:26.364Z,11.00
2019-03-22T00:06:54.144Z,6.97
2019-03-22T00:09:22.011Z,9.37
2019-03-22T00:11:50.215Z,7.77
2019-03-22T00:14:17.985Z,12.03
2019-03-22T00:16:45.921Z,12.77
2019-03-22T00:19:13.804Z,11.97
2019-03-22T00:21:41.664Z,11.20
2019-03-22T00:24:09.550Z,11.20
2019-03-22T00:26:37.704Z,10.83
2019-03-22T00:29:05.566Z,9.27
2019-03-22T00:31:33.428Z,9.33
2019-03-22T00:34:01.416Z,8.17
2019-03-22T00:36:29.370Z,11.50
2019-03-22T00:38:57.232Z,8.43
2019-03-22T00:41:25.171Z,7.53
2019-03-22T00:43:53.023Z,9.00
2019-03-22T00:46:20.792Z,8.10
2019-03-22T00:48:48.544Z,11.97
2019-03-22T00:51:17.631Z,10.00
2019-03-22T00:53:45.519Z,5.50
2019-03-22T00:56:13.535Z,11.23
2019-03-22T00:58:41.328Z,8.73
2019-03-22T01:01:09.307Z,9.63
2019-03-22T01:03:37.088Z,10.80
2019-03-22T01:06:05.228Z,9.37
2019-03-22T01:08:32.994Z,7.33
2019-03-22T01:11:00.764Z,10.30
2019-03-22T01:13:28.768Z,10.60
2019-03-22T01:15:56.739Z,8.53
2019-03-22T01:18:24.727Z,9.97
2019-03-22T01:20:52.710Z,8.33
2019-03-22T01:23:20.568Z,11.87
2019-03-22T01:25:48.351Z,16.13
2019-03-22T01:28:16.183Z,9.40
2019-03-22T01:30:43.977Z,12.73
2019-03-22T01:33:11.872Z,9.03
2019-03-22T01:35:39.694Z,10.80
2019-03-22T01:38:07.687Z,12.13
2019-03-22T01:40:35.598Z,8.17
2019-03-22T01:43:03.463Z,17.10
2019-03-22T01:45:31.349Z,11.40
2019-03-22T01:47:59.225Z,16.03
2019-03-22T01:50:27.074Z,11.77
2019-03-22T01:52:54.952Z,13.03
2019-03-22T01:55:22.871Z,11.30
2019-03-22T01:57:53.660Z,12.43
2019-03-22T02:00:20.705Z,11.90
2019-03-22T02:02:48.578Z,13.27
2019-03-22T02:05:16.764Z,12.20
2019-03-22T02:07:44.970Z,10.30
2019-03-22T02:10:13.428Z,17.20
2019-03-22T02:12:41.292Z,8.37
2019-03-22T02:15:11.804Z,10.43
2019-03-22T02:17:39.676Z,10.33
2019-03-22T02:20:08.128Z,12.23
2019-03-22T02:22:35.907Z,10.93
2019-03-22T02:25:04.633Z,6.90
2019-03-22T02:27:32.437Z,8.57
2019-03-22T02:30:00.125Z,11.33
2019-03-22T02:32:28.386Z,12.70
2019-03-22T02:34:56.277Z,10.20
2019-03-22T02:37:24.141Z,8.87
2019-03-22T02:39:52.011Z,10.47
2019-03-22T02:42:19.861Z,8.53
2019-03-22T02:44:47.741Z,6.90
2019-03-22T02:47:15.515Z,8.77
2019-03-22T02:49:43.392Z,10.60
2019-03-22T02:52:11.312Z,9.70
2019-03-22T02:54:39.184Z,7.33
2019-03-22T02:57:07.024Z,8.07
2019-03-22T02:59:35.202Z,8.07
2019-03-22T03:02:03.118Z,9.33
2019-03-22T03:04:31.137Z,8.03
2019-03-22T03:06:59.187Z,12.90
2019-03-22T03:09:28.017Z,8.03
2019-03-22T03:11:56.085Z,7.53
2019-03-22T03:14:24.082Z,5.03
2019-03-22T03:16:51.904Z,8.03
2019-03-22T03:19:19.898Z,11.00
2019-03-22T03:21:47.740Z,7.93
2019-03-22T03:24:15.736Z,8.43
2019-03-22T03:26:43.686Z,6.07
2019-03-22T03:29:11.660Z,8.97
2019-03-22T03:31:39.413Z,6.33
2019-03-22T03:34:07.591Z,6.50
2019-03-22T03:36:35.463Z,5.00
2019-03-22T03:39:05.534Z,7.30
2019-03-22T03:41:33.387Z,9.00
2019-03-22T03:44:01.325Z,10.13
2019-03-22T03:46:29.189Z,7.17
2019-03-22T03:48:57.037Z,8.63
2019-03-22T03:51:24.930Z,6.80
2019-03-22T03:53:52.785Z,7.03
2019-03-22T03:56:20.652Z,10.23
2019-03-22T03:58:52.673Z,9.73
2019-03-22T04:01:20.028Z,8.93
2019-03-22T04:03:47.981Z,9.30
2019-03-22T04:06:15.860Z,8.57
2019-03-22T04:08:43.744Z,10.43
2019-03-22T04:11:11.628Z,10.37
2019-03-22T04:13:39.795Z,9.57
2019-03-22T04:16:07.527Z,9.30
2019-03-22T04:18:35.209Z,10.47
2019-03-22T04:21:03.463Z,9.33
2019-03-22T04:23:31.294Z,8.27
2019-03-22T04:25:59.186Z,12.30
2019-03-22T04:28:27.052Z,10.70
2019-03-22T04:30:54.854Z,10.40
2019-03-22T04:33:22.788Z,10.40
2019-03-22T04:35:50.749Z,16.13
2019-03-22T04:38:18.643Z,13.13
2019-03-22T04:40:46.883Z,11.97
2019-03-22T04:43:14.744Z,14.43
2019-03-22T04:45:44.281Z,17.17
2019-03-22T04:48:17.731Z,15.67
2019-03-22T04:50:48.079Z,9.80
2019-03-22T04:53:21.857Z,13.40
2019-03-22T04:55:54.560Z,12.67
2019-03-22T04:58:23.267Z,13.23
2019-03-22T05:01:12.112Z,13.33
2019-03-22T05:03:40.677Z,9.67
2019-03-22T05:06:09.835Z,10.87
2019-03-22T05:08:41.172Z,6.27
2019-03-22T05:11:11.271Z,8.07
2019-03-22T05:13:41.039Z,9.80
2019-03-22T05:16:12.530Z,8.70
2019-03-22T05:18:44.590Z,5.97
2019-03-22T05:21:13.840Z,6.10
2019-03-22T05:23:42.811Z,8.27
2019-03-22T05:26:14.178Z,6.20
2019-03-22T05:28:42.536Z,6.93
2019-03-22T05:31:44.688Z,10.93
2019-03-22T05:34:12.543Z,6.00
2019-03-22T05:36:40.720Z,4.03
2019-03-22T05:39:09.299Z,6.40
2019-03-22T05:41:37.352Z,9.37
2019-03-22T05:44:05.248Z,8.73
2019-03-22T05:46:33.306Z,49.93
2019-03-22T05:49:01.255Z,12.53
2019-03-22T05:51:29.143Z,5.07
2019-03-22T05:53:56.840Z,6.57
2019-03-22T05:56:24.694Z,4.83
2019-03-22T05:58:52.733Z,4.93
2019-03-22T06:01:20.716Z,3.87
2019-03-22T06:03:48.632Z,7.77
2019-03-22T06:06:16.706Z,7.57
2019-03-22T06:08:44.718Z,10.50
2019-03-22T06:11:12.656Z,6.70
2019-03-22T06:13:40.530Z,5.70
2019-03-22T06:16:08.279Z,11.03
2019-03-22T06:18:36.254Z,8.90
2019-03-22T06:21:04.000Z,10.70
2019-03-22T06:23:32.019Z,8.30
2019-03-22T06:25:59.780Z,7.57
2019-03-22T06:28:27.715Z,6.90
2019-03-22T06:30:55.630Z,4.70
2019-03-22T06:33:23.450Z,6.07
2019-03-22T06:35:51.300Z,5.80
2019-03-22T06:38:38.332Z,6.67
2019-03-22T06:41:06.197Z,8.67
2019-03-22T06:43:34.085Z,5.67
2019-03-22T06:46:01.971Z,8.23
2019-03-22T06:48:29.936Z,8.70
2019-03-22T06:50:58.008Z,5.90
2019-03-22T06:53:25.791Z,5.27
2019-03-22T06:55:53.561Z,6.57
2019-03-22T06:58:24.032Z,4.50
2019-03-22T07:00:51.088Z,7.03
2019-03-22T07:03:18.943Z,6.77
2019-03-22T07:05:47.014Z,5.63
2019-03-22T07:08:14.897Z,5.10
2019-03-22T07:10:42.666Z,4.23
2019-03-22T07:13:10.440Z,4.73
2019-03-22T07:15:38.326Z,7.17
2019-03-22T07:18:06.235Z,8.00
2019-03-22T07:20:34.108Z,5.50
2019-03-22T07:23:01.905Z,6.70
2019-03-22T07:25:29.671Z,6.20
2019-03-22T07:27:58.119Z,6.30
2019-03-22T07:30:25.891Z,4.80
2019-03-22T07:32:53.736Z,3.63
2019-03-22T07:35:21.608Z,5.57
2019-03-22T07:37:49.376Z,4.47
2019-03-22T07:40:17.233Z,3.77
2019-03-22T07:42:45.099Z,6.10
2019-03-22T07:45:13.171Z,5.53
2019-03-22T07:47:40.940Z,5.80
2019-03-22T07:50:09.021Z,6.83
2019-03-22T07:52:36.990Z,7.33
2019-03-22T07:55:05.270Z,4.37
2019-03-22T07:57:33.143Z,6.50
2019-03-22T08:00:00.911Z,5.50
2019-03-22T08:02:28.796Z,6.90
2019-03-22T08:04:56.652Z,6.53
2019-03-22T08:07:24.576Z,6.47
2019-03-22T08:09:52.483Z,5.07
2019-03-22T08:12:20.279Z,6.20
2019-03-22T08:14:47.952Z,4.37
2019-03-22T08:17:15.821Z,4.07
2019-03-22T08:19:43.575Z,8.73
2019-03-22T08:22:11.454Z,4.93
2019-03-22T08:24:39.307Z,6.23
2019-03-22T08:27:07.185Z,7.23
2019-03-22T08:29:35.074Z,7.33
2019-03-22T08:32:03.047Z,4.63
2019-03-22T08:34:30.789Z,4.40
2019-03-22T08:36:58.829Z,6.43
2019-03-22T08:39:26.729Z,8.40
2019-03-22T08:41:54.503Z,5.70
2019-03-22T08:44:22.456Z,4.83
2019-03-22T08:46:50.321Z,2.77
2019-03-22T08:49:18.196Z,4.80
2019-03-22T08:51:46.238Z,6.00
2019-03-22T08:54:14.200Z,4.80
2019-03-22T08:56:42.151Z,5.53
2019-03-22T08:59:09.863Z,8.47
2019-03-22T09:01:37.837Z,4.33
2019-03-22T09:04:05.678Z,3.80
2019-03-22T09:06:33.436Z,4.60
2019-03-22T09:09:01.159Z,5.13
2019-03-22T09:11:28.984Z,3.43
2019-03-22T09:13:56.893Z,5.53
2019-03-22T09:16:24.729Z,5.30
2019-03-22T09:18:52.941Z,5.03
2019-03-22T09:21:20.796Z,6.13
2019-03-22T09:23:48.728Z,4.27
2019-03-22T09:26:16.518Z,5.50
2019-03-22T09:28:44.426Z,4.80
2019-03-22T09:31:12.486Z,5.17
2019-03-22T09:33:40.626Z,7.13
2019-03-22T09:36:08.524Z,4.83
2019-03-22T09:38:36.421Z,3.83
2019-03-22T09:41:04.331Z,4.27
2019-03-22T09:43:32.192Z,1.93
2019-03-22T09:46:00.233Z,4.33
2019-03-22T09:48:28.102Z,6.03
2019-03-22T09:50:55.985Z,3.83
2019-03-22T09:53:23.875Z,6.40
2019-03-22T09:55:51.800Z,2.70
2019-03-22T09:58:19.626Z,2.57
2019-03-22T10:00:48.732Z,3.53
2019-03-22T10:03:16.843Z,4.87
2019-03-22T10:05:44.823Z,4.77
2019-03-22T10:08:12.680Z,2.93
2019-03-22T10:10:40.557Z,4.87
2019-03-22T10:13:08.551Z,5.03
2019-03-22T10:15:36.478Z,4.20
2019-03-22T10:18:04.944Z,4.50
2019-03-22T10:20:32.854Z,3.13
2019-03-22T10:23:00.705Z,3.80
2019-03-22T10:25:30.006Z,3.37
2019-03-22T10:27:58.008Z,5.30
2019-03-22T10:30:26.134Z,2.33
2019-03-22T10:32:53.954Z,3.83
2019-03-22T10:35:26.374Z,3.90
2019-03-22T10:37:51.540Z,5.53
2019-03-22T10:40:21.183Z,2.73
2019-03-22T10:42:49.058Z,2.23
2019-03-22T10:45:16.787Z,4.27
2019-03-22T10:47:44.672Z,3.77
2019-03-22T10:50:12.544Z,2.37
2019-03-22T10:52:40.419Z,2.67
2019-03-22T10:55:28.422Z,2.50
2019-03-22T10:57:40.221Z,3.53
2019-03-22T11:00:10.056Z,2.63
2019-03-22T11:02:39.828Z,3.87
2019-03-22T11:05:07.741Z,2.33
2019-03-22T11:07:35.518Z,4.57
2019-03-22T11:10:06.077Z,3.70
2019-03-22T11:12:33.953Z,4.07
2019-03-22T11:15:01.840Z,1.97
2019-03-22T11:17:29.752Z,2.07
2019-03-22T11:19:57.660Z,4.07
2019-03-22T11:22:25.900Z,3.57
2019-03-22T11:24:53.915Z,3.73
2019-03-22T11:27:22.111Z,4.33
2019-03-22T11:29:50.208Z,4.27
2019-03-22T11:32:18.168Z,3.63
2019-03-22T11:34:46.010Z,3.47
2019-03-22T11:37:13.794Z,5.03
2019-03-22T11:39:41.768Z,3.00
2019-03-22T11:42:09.559Z,2.17
2019-03-22T11:44:37.461Z,2.50
2019-03-22T11:47:05.442Z,3.30
2019-03-22T11:49:33.225Z,3.93
2019-03-22T11:52:01.195Z,2.33
2019-03-22T11:54:29.153Z,4.10
2019-03-22T11:56:56.995Z,5.17
2019-03-22T11:59:24.873Z,3.00
2019-03-22T12:01:52.564Z,3.33
2019-03-22T12:04:20.555Z,3.57
2019-03-22T12:06:48.736Z,4.23
2019-03-22T12:09:16.531Z,2.90
2019-03-22T12:11:44.390Z,1.87
2019-03-22T12:14:12.381Z,4.40
2019-03-22T12:16:40.301Z,2.47
2019-03-22T12:19:08.256Z,4.40
2019-03-22T12:21:36.043Z,4.43
2019-03-22T12:24:04.023Z,3.80
2019-03-22T12:26:32.007Z,5.00
2019-03-22T12:28:59.783Z,3.63
2019-03-22T12:31:27.757Z,2.13
2019-03-22T12:33:55.508Z,6.33
2019-03-22T12:36:23.601Z,2.13
2019-03-22T12:38:51.479Z,4.17
2019-03-22T12:41:19.439Z,4.43
2019-03-22T12:43:47.429Z,3.37
2019-03-22T12:46:15.275Z,5.37
2019-03-22T12:48:43.132Z,4.50
2019-03-22T12:51:10.930Z,2.00
2019-03-22T12:53:38.731Z,4.53
2019-03-22T12:56:06.682Z,3.67
2019-03-22T12:58:34.482Z,3.87
2019-03-22T13:01:02.577Z,3.97
2019-03-22T13:03:30.539Z,3.53
2019-03-22T13:05:58.320Z,4.60
2019-03-22T13:08:26.245Z,4.03
2019-03-22T13:10:54.132Z,4.77
2019-03-22T13:13:22.024Z,4.53
2019-03-22T13:15:50.068Z,2.93
2019-03-22T13:18:17.847Z,2.97
2019-03-22T13:20:45.641Z,3.83
2019-03-22T13:23:13.501Z,3.13
2019-03-22T13:25:41.407Z,4.33
2019-03-22T13:28:09.224Z,2.77
2019-03-22T13:30:36.995Z,5.90
2019-03-22T13:33:04.843Z,3.47
2019-03-22T13:35:32.936Z,3.10
2019-03-22T13:38:00.975Z,2.53
2019-03-22T13:40:29.249Z,3.00
2019-03-22T13:42:57.458Z,4.07
2019-03-22T13:45:25.618Z,4.07
2019-03-22T13:47:53.612Z,3.20
2019-03-22T13:50:21.587Z,3.43
2019-03-22T13:52:49.600Z,4.43
2019-03-22T13:55:17.550Z,2.93
2019-03-22T13:57:45.439Z,2.40
2019-03-22T14:00:13.907Z,2.20
2019-03-22T14:02:41.731Z,4.00
2019-03-22T14:05:09.611Z,2.90
2019-03-22T14:07:37.498Z,2.83
2019-03-22T14:10:06.159Z,3.43
2019-03-22T14:12:37.194Z,3.47
2019-03-22T14:15:06.484Z,6.40
2019-03-22T14:17:34.375Z,3.97
2019-03-22T14:20:10.970Z,3.60
2019-03-22T14:22:32.197Z,2.83
2019-03-22T14:25:00.139Z,4.37
2019-03-22T14:27:28.241Z,3.83
2019-03-22T14:29:56.136Z,2.80
2019-03-22T14:32:24.064Z,3.53
2019-03-22T14:34:51.828Z,4.97
2019-03-22T14:37:19.800Z,2.77
2019-03-22T14:39:47.776Z,4.40
2019-03-22T14:42:15.583Z,3.77
2019-03-22T14:44:43.445Z,2.63
2019-03-22T14:47:13.054Z,4.33
2019-03-22T14:49:40.972Z,4.20
2019-03-22T14:52:08.776Z,5.27
2019-03-22T14:54:36.667Z,2.33
2019-03-22T14:57:04.856Z,3.37
2019-03-22T14:59:32.819Z,2.63
2019-03-22T15:02:00.691Z,5.80
2019-03-22T15:04:28.500Z,3.67
2019-03-22T15:06:56.380Z,4.13
2019-03-22T15:09:24.530Z,5.00
2019-03-22T15:11:52.446Z,2.87
2019-03-22T15:14:38.804Z,5.83
2019-03-22T15:17:26.282Z,4.70
2019-03-22T15:20:16.392Z,3.23
2019-03-22T15:23:02.555Z,4.77
2019-03-22T15:25:58.016Z,4.50
2019-03-22T15:29:05.027Z,3.80
2019-03-22T15:31:57.300Z,3.23
2019-03-22T15:34:35.383Z,4.67
2019-03-22T15:37:22.044Z,3.10
2019-03-22T15:40:02.362Z,3.53
2019-03-22T15:42:30.267Z,4.77
2019-03-22T15:44:58.475Z,4.40
2019-03-22T15:47:26.332Z,3.83
2019-03-22T15:49:54.506Z,4.10
2019-03-22T15:52:22.630Z,4.40
2019-03-22T15:54:50.463Z,3.13
2019-03-22T15:57:18.355Z,3.83
2019-03-22T15:59:46.230Z,4.23
2019-03-22T16:02:14.109Z,4.63
2019-03-22T16:04:42.246Z,3.03
2019-03-22T16:07:10.017Z,3.93
2019-03-22T16:09:37.760Z,3.47
2019-03-22T16:12:05.673Z,6.13
2019-03-22T16:14:33.632Z,3.90
2019-03-22T16:17:01.533Z,4.33
2019-03-22T16:19:29.369Z,3.60
2019-03-22T16:21:57.219Z,2.47
2019-03-22T16:24:25.091Z,5.30
2019-03-22T16:26:52.965Z,3.73
2019-03-22T16:29:20.747Z,5.83
2019-03-22T16:31:48.761Z,4.87
2019-03-22T16:34:16.600Z,2.87
2019-03-22T16:36:44.469Z,3.23
2019-03-22T16:39:12.292Z,5.40
2019-03-22T16:41:40.159Z,7.77
2019-03-22T16:44:07.895Z,6.00
2019-03-22T16:46:35.755Z,3.93
2019-03-22T16:49:03.508Z,4.43
2019-03-22T16:51:31.400Z,6.33
2019-03-22T16:53:59.140Z,4.63
2019-03-22T16:56:26.987Z,6.37
2019-03-22T16:58:54.758Z,5.20
2019-03-22T17:01:22.623Z,3.07
2019-03-22T17:03:50.467Z,6.00
2019-03-22T17:06:18.249Z,5.37
2019-03-22T17:08:47.990Z,4.80
2019-03-22T17:11:18.444Z,5.33
2019-03-22T17:13:46.354Z,4.10
2019-03-22T17:16:14.102Z,6.53
2019-03-22T17:18:42.143Z,3.93
2019-03-22T17:21:10.017Z,5.43
2019-03-22T17:23:38.011Z,8.00
2019-03-22T17:26:05.868Z,4.40
2019-03-22T17:28:33.742Z,4.23
2019-03-22T17:31:01.588Z,3.83
2019-03-22T17:33:29.460Z,6.80
2019-03-22T17:35:57.323Z,3.63
2019-03-22T17:38:25.305Z,5.73
2019-03-22T17:40:53.200Z,5.20
2019-03-22T17:43:21.249Z,3.80
2019-03-22T17:45:49.194Z,8.43
2019-03-22T17:48:17.015Z,4.87
2019-03-22T17:50:44.968Z,6.03
2019-03-22T17:53:12.815Z,6.63
2019-03-22T17:55:40.798Z,4.60
2019-03-22T17:58:08.548Z,6.60
2019-03-22T18:00:36.617Z,7.87
2019-03-22T18:03:04.643Z,6.70
2019-03-22T18:05:32.501Z,5.90
2019-03-22T18:08:00.495Z,4.23
2019-03-22T18:10:28.494Z,5.80
2019-03-22T18:12:56.250Z,6.53
2019-03-22T18:15:24.122Z,4.60
2019-03-22T18:17:51.963Z,7.17
2019-03-22T18:20:19.876Z,4.33
2019-03-22T18:22:47.644Z,7.57
2019-03-22T18:25:15.887Z,8.00
2019-03-22T18:27:43.882Z,6.03
2019-03-22T18:30:12.180Z,5.17
2019-03-22T18:32:40.057Z,6.33
2019-03-22T18:35:08.255Z,5.67
2019-03-22T18:37:36.088Z,6.77
2019-03-22T18:40:04.821Z,5.73
2019-03-22T18:42:32.810Z,7.53
2019-03-22T18:45:00.655Z,5.07
2019-03-22T18:47:28.742Z,4.83
2019-03-22T18:49:56.593Z,5.80
2019-03-22T18:52:24.663Z,4.83
2019-03-22T18:54:52.537Z,7.17
2019-03-22T18:57:20.406Z,4.63
2019-03-22T18:59:48.171Z,6.83
2019-03-22T19:02:16.014Z,6.43
2019-03-22T19:04:44.458Z,5.57
2019-03-22T19:07:12.345Z,7.17
2019-03-22T19:09:40.251Z,6.67
2019-03-22T19:12:08.111Z,5.70
2019-03-22T19:14:35.997Z,6.50
2019-03-22T19:17:03.973Z,6.47
2019-03-22T19:19:31.953Z,4.03
2019-03-22T19:21:59.807Z,5.27
2019-03-22T19:24:27.572Z,6.10
2019-03-22T19:26:55.450Z,5.47
2019-03-22T19:29:23.439Z,4.50
2019-03-22T19:31:51.230Z,7.43
2019-03-22T19:34:18.931Z,6.83
2019-03-22T19:36:46.778Z,8.70
2019-03-22T19:39:14.532Z,7.53
2019-03-22T19:41:42.411Z,7.37
2019-03-22T19:44:10.278Z,7.93
2019-03-22T19:46:38.192Z,9.43
2019-03-22T19:49:05.953Z,10.93
2019-03-22T19:51:33.774Z,9.73
2019-03-22T19:54:01.547Z,9.23
2019-03-22T19:56:29.343Z,9.60
2019-03-22T19:58:57.199Z,12.80
2019-03-22T20:01:25.070Z,8.10
2019-03-22T20:03:52.826Z,9.17
2019-03-22T20:06:20.599Z,8.93
2019-03-22T20:08:48.608Z,11.47
2019-03-22T20:11:16.339Z,9.80
2019-03-22T20:13:44.129Z,8.77
2019-03-22T20:16:11.971Z,8.57
2019-03-22T20:18:39.788Z,10.00
2019-03-22T20:21:07.697Z,11.33
2019-03-22T20:23:35.648Z,11.97
2019-03-22T20:26:04.967Z,10.53
2019-03-22T20:28:32.730Z,10.80
2019-03-22T20:31:00.600Z,8.60
2019-03-22T20:33:28.377Z,11.13
2019-03-22T20:35:56.122Z,11.03
2019-03-22T20:38:23.911Z,12.50
2019-03-22T20:40:51.763Z,7.13
2019-03-22T20:43:21.196Z,10.93
2019-03-22T20:45:49.222Z,9.40
2019-03-22T20:48:17.096Z,14.63
2019-03-22T20:50:44.963Z,13.10
2019-03-22T20:53:12.923Z,13.40
2019-03-22T20:55:40.787Z,13.37
2019-03-22T20:58:09.168Z,14.07
2019-03-22T21:00:37.121Z,15.00
2019-03-22T21:03:05.185Z,16.57
2019-03-22T21:05:33.076Z,19.10
2019-03-22T21:08:00.826Z,16.87
2019-03-22T21:10:28.632Z,19.23
2019-03-22T21:12:56.500Z,14.00
2019-03-22T21:15:24.972Z,18.57
2019-03-22T21:17:52.895Z,16.80
2019-03-22T21:20:20.727Z,17.50
2019-03-22T21:22:48.609Z,16.33
2019-03-22T21:25:16.342Z,15.30
2019-03-22T21:27:44.323Z,17.10
2019-03-22T21:30:12.325Z,21.13
2019-03-22T21:32:45.254Z,19.63
2019-03-22T21:35:21.571Z,20.67
2019-03-22T21:37:40.106Z,19.97
2019-03-22T21:40:08.141Z,21.30
2019-03-22T21:42:35.965Z,20.83
2019-03-22T21:45:04.179Z,23.87
2019-03-22T21:47:31.915Z,21.77
2019-03-22T21:49:59.892Z,22.93
2019-03-22T21:52:27.834Z,18.63
2019-03-22T21:54:55.818Z,24.40
2019-03-22T21:57:23.660Z,23.77
2019-03-22T21:59:51.535Z,33.37
2019-03-22T22:02:19.500Z,23.13
2019-03-22T22:04:47.493Z,26.27
2019-03-22T22:07:15.331Z,23.20
2019-03-22T22:09:43.107Z,22.63
2019-03-22T22:12:10.846Z,19.37
2019-03-22T22:14:41.002Z,17.30
2019-03-22T22:17:08.302Z,16.33
2019-03-22T22:19:36.047Z,16.80
2019-03-22T22:22:03.969Z,18.40
2019-03-22T22:24:31.844Z,16.90
2019-03-22T22:26:59.861Z,15.67
2019-03-22T22:29:27.890Z,13.27
2019-03-22T22:31:55.782Z,18.00
2019-03-22T22:34:23.683Z,15.47
2019-03-22T22:36:51.526Z,17.43
2019-03-22T22:39:19.404Z,16.33
2019-03-22T22:41:47.295Z,13.57
2019-03-22T22:44:15.090Z,14.27
2019-03-22T22:46:43.088Z,14.13
2019-03-22T22:49:11.011Z,12.83
2019-03-22T22:51:38.931Z,12.43
2019-03-22T22:54:06.827Z,14.47
2019-03-22T22:56:34.890Z,15.13
2019-03-22T22:59:02.735Z,14.70
2019-03-22T23:01:30.719Z,12.73
2019-03-22T23:03:58.364Z,15.67
2019-03-22T23:06:26.265Z,13.97
2019-03-22T23:08:54.111Z,14.83
2019-03-22T23:11:21.988Z,11.60
2019-03-22T23:13:49.995Z,14.27
2019-03-22T23:16:18.101Z,13.67
2019-03-22T23:18:45.945Z,15.40
2019-03-22T23:21:14.080Z,14.90
2019-03-22T23:23:42.252Z,19.17
2019-03-22T23:26:10.147Z,15.83
2019-03-22T23:28:37.985Z,19.40
2019-03-22T23:31:05.860Z,16.83
2019-03-22T23:33:35.039Z,16.83
2019-03-22T23:36:02.792Z,16.43
2019-03-22T23:38:30.685Z,19.97
2019-03-22T23:40:58.545Z,18.57
2019-03-22T23:43:26.351Z,18.90
2019-03-22T23:45:54.119Z,18.67
2019-03-22T23:48:21.976Z,20.13
2019-03-22T23:50:49.977Z,20.57
2019-03-22T23:53:17.915Z,16.50
2019-03-22T23:55:45.664Z,18.90
2019-03-22T23:58:13.652Z,24.13
